Athens, New York
Current Conditions -  °F | °C
As of 3:54 PM on Tuesday 21 Oct 2014 (Local Time) from KPSF Reporting Station
Overcast Overcast  
Wind Chill: 50°   Ceiling: 4500
Heat Index: 50°   Visibility: 9mi
Dew Point: 48°   Wind: 3mph
Humidity: 93%   Direction: 360°N
Pressure: 29.9"   Gusts: NA
Location:  42.26°N, 73.81°W
Report Text: KPSF 211954Z AUTO 36003KT 9SM OVC045 10/09 A2990 RMK AO2 RAE14 SLP120 P0001 T01000089
Loading
Personal Weather Stations






























Interactive Weather Map
Tropical Storm Tracking
New forecast layout! Learn more

10-Day Weather Forecast

Advertisements
Track Severe Weather on mobile